sensor_id;sensor_type;location;lat;lon;timestamp;P1;durP1;ratioP1;P2;durP2;ratioP2
27383;SDS011;14851;51.166;4.760;2023-04-25T00:01:29;17.58;;;4.63;;
27383;SDS011;14851;51.166;4.760;2023-04-25T00:03:57;12.68;;;4.00;;
27383;SDS011;14851;51.166;4.760;2023-04-25T00:06:22;17.90;;;4.43;;
27383;SDS011;14851;51.166;4.760;2023-04-25T00:08:52;15.15;;;4.45;;
27383;SDS011;14851;51.166;4.760;2023-04-25T00:11:18;16.55;;;4.75;;
27383;SDS011;14851;51.166;4.760;2023-04-25T00:13:44;19.42;;;4.90;;
27383;SDS011;14851;51.166;4.760;2023-04-25T00:16:11;16.48;;;5.07;;
27383;SDS011;14851;51.166;4.760;2023-04-25T00:18:41;18.65;;;5.18;;
27383;SDS011;14851;51.166;4.760;2023-04-25T00:21:07;15.90;;;4.53;;
27383;SDS011;14851;51.166;4.760;2023-04-25T00:23:35;13.38;;;4.13;;
27383;SDS011;14851;51.166;4.760;2023-04-25T00:26:01;17.95;;;4.97;;
27383;SDS011;14851;51.166;4.760;2023-04-25T00:28:27;18.63;;;5.13;;
27383;SDS011;14851;51.166;4.760;2023-04-25T00:30:53;12.82;;;4.63;;
27383;SDS011;14851;51.166;4.760;2023-04-25T00:33:20;14.60;;;4.40;;
27383;SDS011;14851;51.166;4.760;2023-04-25T00:38:17;10.20;;;4.03;;
27383;SDS011;14851;51.166;4.760;2023-04-25T00:40:43;16.00;;;4.63;;
27383;SDS011;14851;51.166;4.760;2023-04-25T00:43:09;16.27;;;4.18;;
27383;SDS011;14851;51.166;4.760;2023-04-25T00:45:34;18.35;;;5.28;;
27383;SDS011;14851;51.166;4.760;2023-04-25T00:48:04;17.27;;;4.72;;
27383;SDS011;14851;51.166;4.760;2023-04-25T00:50:33;14.25;;;4.45;;
27383;SDS011;14851;51.166;4.760;2023-04-25T00:52:59;17.20;;;4.78;;
27383;SDS011;14851;51.166;4.760;2023-04-25T00:55:26;17.13;;;4.68;;
27383;SDS011;14851;51.166;4.760;2023-04-25T00:57:52;15.38;;;4.65;;
27383;SDS011;14851;51.166;4.760;2023-04-25T01:00:20;13.73;;;4.50;;
27383;SDS011;14851;51.166;4.760;2023-04-25T01:02:46;14.55;;;4.68;;
27383;SDS011;14851;51.166;4.760;2023-04-25T01:05:15;18.60;;;4.50;;
27383;SDS011;14851;51.166;4.760;2023-04-25T01:07:41;18.10;;;4.78;;
27383;SDS011;14851;51.166;4.760;2023-04-25T01:10:07;19.58;;;4.90;;
27383;SDS011;14851;51.166;4.760;2023-04-25T01:12:33;19.98;;;5.05;;
27383;SDS011;14851;51.166;4.760;2023-04-25T01:14:59;16.27;;;4.13;;
27383;SDS011;14851;51.166;4.760;2023-04-25T01:17:25;21.60;;;5.25;;
27383;SDS011;14851;51.166;4.760;2023-04-25T01:19:56;14.82;;;5.05;;
27383;SDS011;14851;51.166;4.760;2023-04-25T01:22:25;23.90;;;5.40;;
27383;SDS011;14851;51.166;4.760;2023-04-25T01:24:53;17.48;;;4.50;;
27383;SDS011;14851;51.166;4.760;2023-04-25T01:27:19;16.73;;;4.97;;
27383;SDS011;14851;51.166;4.760;2023-04-25T01:29:48;13.73;;;4.40;;
27383;SDS011;14851;51.166;4.760;2023-04-25T01:32:15;17.77;;;5.30;;
27383;SDS011;14851;51.166;4.760;2023-04-25T01:34:41;20.00;;;5.50;;
27383;SDS011;14851;51.166;4.760;2023-04-25T01:37:07;18.90;;;4.40;;
27383;SDS011;14851;51.166;4.760;2023-04-25T01:39:33;17.73;;;5.55;;
27383;SDS011;14851;51.166;4.760;2023-04-25T01:42:05;15.48;;;4.57;;
27383;SDS011;14851;51.166;4.760;2023-04-25T01:44:31;17.08;;;4.53;;
27383;SDS011;14851;51.166;4.760;2023-04-25T01:46:56;18.15;;;4.88;;
27383;SDS011;14851;51.166;4.760;2023-04-25T01:49:22;20.35;;;5.35;;
27383;SDS011;14851;51.166;4.760;2023-04-25T01:51:48;17.67;;;5.78;;
27383;SDS011;14851;51.166;4.760;2023-04-25T01:54:17;19.10;;;5.20;;
27383;SDS011;14851;51.166;4.760;2023-04-25T01:56:49;15.32;;;4.65;;
27383;SDS011;14851;51.166;4.760;2023-04-25T01:59:16;16.65;;;4.97;;
27383;SDS011;14851;51.166;4.760;2023-04-25T02:02:05;18.30;;;5.90;;
27383;SDS011;14851;51.166;4.760;2023-04-25T02:04:32;29.10;;;7.18;;
27383;SDS011;14851;51.166;4.760;2023-04-25T02:06:58;16.48;;;5.45;;
27383;SDS011;14851;51.166;4.760;2023-04-25T02:09:32;20.33;;;5.43;;
27383;SDS011;14851;51.166;4.760;2023-04-25T02:12:02;18.88;;;5.47;;
27383;SDS011;14851;51.166;4.760;2023-04-25T02:14:51;12.93;;;4.32;;
27383;SDS011;14851;51.166;4.760;2023-04-25T02:17:36;15.32;;;5.38;;
27383;SDS011;14851;51.166;4.760;2023-04-25T02:20:03;21.88;;;5.68;;
27383;SDS011;14851;51.166;4.760;2023-04-25T02:22:31;17.73;;;5.15;;
27383;SDS011;14851;51.166;4.760;2023-04-25T02:25:01;18.70;;;4.72;;
27383;SDS011;14851;51.166;4.760;2023-04-25T02:27:30;17.50;;;4.55;;
27383;SDS011;14851;51.166;4.760;2023-04-25T02:29:58;17.08;;;5.70;;
27383;SDS011;14851;51.166;4.760;2023-04-25T02:32:25;17.38;;;4.40;;
27383;SDS011;14851;51.166;4.760;2023-04-25T02:34:53;16.95;;;4.22;;
27383;SDS011;14851;51.166;4.760;2023-04-25T02:37:25;14.57;;;4.53;;
27383;SDS011;14851;51.166;4.760;2023-04-25T02:39:51;17.58;;;4.57;;
27383;SDS011;14851;51.166;4.760;2023-04-25T02:42:17;16.33;;;4.93;;
27383;SDS011;14851;51.166;4.760;2023-04-25T02:44:45;18.30;;;4.57;;
27383;SDS011;14851;51.166;4.760;2023-04-25T02:47:11;19.33;;;4.75;;
27383;SDS011;14851;51.166;4.760;2023-04-25T02:49:37;15.48;;;4.57;;
27383;SDS011;14851;51.166;4.760;2023-04-25T02:52:06;21.42;;;5.20;;
27383;SDS011;14851;51.166;4.760;2023-04-25T02:54:32;18.83;;;5.22;;
27383;SDS011;14851;51.166;4.760;2023-04-25T02:56:58;22.35;;;5.50;;
27383;SDS011;14851;51.166;4.760;2023-04-25T02:59:29;16.25;;;5.10;;
27383;SDS011;14851;51.166;4.760;2023-04-25T03:01:55;19.98;;;5.38;;
27383;SDS011;14851;51.166;4.760;2023-04-25T03:04:24;18.48;;;5.13;;
27383;SDS011;14851;51.166;4.760;2023-04-25T03:06:51;15.65;;;4.90;;
27383;SDS011;14851;51.166;4.760;2023-04-25T03:09:21;17.73;;;5.20;;
27383;SDS011;14851;51.166;4.760;2023-04-25T03:11:51;17.47;;;5.00;;
27383;SDS011;14851;51.166;4.760;2023-04-25T03:14:17;15.13;;;4.75;;
27383;SDS011;14851;51.166;4.760;2023-04-25T03:16:45;15.85;;;5.10;;
27383;SDS011;14851;51.166;4.760;2023-04-25T03:19:11;15.50;;;4.03;;
27383;SDS011;14851;51.166;4.760;2023-04-25T03:21:37;21.92;;;6.20;;
27383;SDS011;14851;51.166;4.760;2023-04-25T03:24:03;19.63;;;4.95;;
27383;SDS011;14851;51.166;4.760;2023-04-25T03:26:30;18.33;;;5.10;;
27383;SDS011;14851;51.166;4.760;2023-04-25T03:28:56;20.05;;;5.13;;
27383;SDS011;14851;51.166;4.760;2023-04-25T03:31:24;20.13;;;5.82;;
27383;SDS011;14851;51.166;4.760;2023-04-25T03:33:50;22.75;;;5.47;;
27383;SDS011;14851;51.166;4.760;2023-04-25T03:36:23;17.73;;;5.72;;
27383;SDS011;14851;51.166;4.760;2023-04-25T03:38:49;16.95;;;4.88;;
27383;SDS011;14851;51.166;4.760;2023-04-25T03:41:16;18.77;;;5.40;;
27383;SDS011;14851;51.166;4.760;2023-04-25T03:43:50;22.65;;;5.22;;
27383;SDS011;14851;51.166;4.760;2023-04-25T03:46:16;18.33;;;5.90;;
27383;SDS011;14851;51.166;4.760;2023-04-25T03:48:42;14.85;;;5.63;;
27383;SDS011;14851;51.166;4.760;2023-04-25T03:51:11;14.57;;;5.35;;
27383;SDS011;14851;51.166;4.760;2023-04-25T03:53:41;22.85;;;6.10;;
27383;SDS011;14851;51.166;4.760;2023-04-25T03:56:13;21.15;;;5.13;;
27383;SDS011;14851;51.166;4.760;2023-04-25T03:58:39;17.80;;;5.47;;
27383;SDS011;14851;51.166;4.760;2023-04-25T04:01:06;19.17;;;5.80;;
27383;SDS011;14851;51.166;4.760;2023-04-25T04:03:35;16.67;;;5.05;;
27383;SDS011;14851;51.166;4.760;2023-04-25T04:06:04;22.80;;;5.97;;
27383;SDS011;14851;51.166;4.760;2023-04-25T04:08:40;22.23;;;5.75;;
27383;SDS011;14851;51.166;4.760;2023-04-25T04:11:06;18.27;;;5.45;;
27383;SDS011;14851;51.166;4.760;2023-04-25T04:13:32;21.08;;;6.80;;
27383;SDS011;14851;51.166;4.760;2023-04-25T04:15:59;16.30;;;5.18;;
27383;SDS011;14851;51.166;4.760;2023-04-25T04:18:25;16.88;;;5.90;;
27383;SDS011;14851;51.166;4.760;2023-04-25T04:20:52;21.35;;;6.47;;
27383;SDS011;14851;51.166;4.760;2023-04-25T04:23:18;21.60;;;6.63;;
27383;SDS011;14851;51.166;4.760;2023-04-25T04:25:46;19.35;;;5.75;;
27383;SDS011;14851;51.166;4.760;2023-04-25T04:28:31;17.75;;;5.68;;
27383;SDS011;14851;51.166;4.760;2023-04-25T04:31:05;21.70;;;6.47;;
27383;SDS011;14851;51.166;4.760;2023-04-25T04:33:32;22.55;;;5.32;;
27383;SDS011;14851;51.166;4.760;2023-04-25T04:36:02;23.35;;;5.57;;
27383;SDS011;14851;51.166;4.760;2023-04-25T04:38:29;18.67;;;5.80;;
27383;SDS011;14851;51.166;4.760;2023-04-25T04:40:59;21.75;;;6.13;;
27383;SDS011;14851;51.166;4.760;2023-04-25T04:43:44;22.20;;;6.65;;
27383;SDS011;14851;51.166;4.760;2023-04-25T04:46:22;14.70;;;6.30;;
27383;SDS011;14851;51.166;4.760;2023-04-25T04:49:10;20.55;;;8.55;;
27383;SDS011;14851;51.166;4.760;2023-04-25T04:51:49;23.23;;;7.87;;
27383;SDS011;14851;51.166;4.760;2023-04-25T04:54:36;24.48;;;9.60;;
27383;SDS011;14851;51.166;4.760;2023-04-25T04:57:25;19.25;;;7.32;;
27383;SDS011;14851;51.166;4.760;2023-04-25T05:00:22;21.08;;;6.20;;
27383;SDS011;14851;51.166;4.760;2023-04-25T05:03:06;20.75;;;5.93;;
27383;SDS011;14851;51.166;4.760;2023-04-25T05:05:48;18.92;;;6.10;;
27383;SDS011;14851;51.166;4.760;2023-04-25T05:08:32;17.98;;;6.30;;
27383;SDS011;14851;51.166;4.760;2023-04-25T05:11:18;16.48;;;5.85;;
27383;SDS011;14851;51.166;4.760;2023-04-25T05:13:59;28.48;;;6.95;;
27383;SDS011;14851;51.166;4.760;2023-04-25T05:16:54;17.00;;;6.63;;
27383;SDS011;14851;51.166;4.760;2023-04-25T05:19:49;20.02;;;6.13;;
27383;SDS011;14851;51.166;4.760;2023-04-25T05:22:38;29.05;;;6.50;;
27383;SDS011;14851;51.166;4.760;2023-04-25T05:25:33;20.92;;;5.65;;
27383;SDS011;14851;51.166;4.760;2023-04-25T05:28:15;21.92;;;6.70;;
27383;SDS011;14851;51.166;4.760;2023-04-25T05:30:56;20.77;;;5.97;;
27383;SDS011;14851;51.166;4.760;2023-04-25T05:33:35;26.02;;;6.20;;
27383;SDS011;14851;51.166;4.760;2023-04-25T05:36:01;26.23;;;6.20;;
27383;SDS011;14851;51.166;4.760;2023-04-25T05:38:28;20.30;;;5.60;;
27383;SDS011;14851;51.166;4.760;2023-04-25T05:41:03;19.05;;;6.05;;
27383;SDS011;14851;51.166;4.760;2023-04-25T05:43:52;19.10;;;5.97;;
27383;SDS011;14851;51.166;4.760;2023-04-25T05:46:47;19.00;;;6.15;;
27383;SDS011;14851;51.166;4.760;2023-04-25T05:49:30;19.80;;;5.13;;
27383;SDS011;14851;51.166;4.760;2023-04-25T05:52:21;18.75;;;5.32;;
27383;SDS011;14851;51.166;4.760;2023-04-25T05:55:06;20.90;;;5.82;;
27383;SDS011;14851;51.166;4.760;2023-04-25T05:57:35;23.88;;;7.07;;
27383;SDS011;14851;51.166;4.760;2023-04-25T06:00:01;28.35;;;7.75;;
27383;SDS011;14851;51.166;4.760;2023-04-25T06:02:40;22.83;;;7.00;;
27383;SDS011;14851;51.166;4.760;2023-04-25T06:05:12;14.95;;;5.10;;
27383;SDS011;14851;51.166;4.760;2023-04-25T06:07:38;19.75;;;6.18;;
27383;SDS011;14851;51.166;4.760;2023-04-25T06:10:04;20.17;;;5.80;;
27383;SDS011;14851;51.166;4.760;2023-04-25T06:12:32;18.67;;;4.63;;
27383;SDS011;14851;51.166;4.760;2023-04-25T06:15:02;23.45;;;4.70;;
27383;SDS011;14851;51.166;4.760;2023-04-25T06:17:30;15.70;;;4.68;;
27383;SDS011;14851;51.166;4.760;2023-04-25T06:19:59;13.48;;;4.00;;
27383;SDS011;14851;51.166;4.760;2023-04-25T06:22:25;16.83;;;5.68;;
27383;SDS011;14851;51.166;4.760;2023-04-25T06:24:51;20.63;;;4.55;;
27383;SDS011;14851;51.166;4.760;2023-04-25T06:27:17;16.48;;;4.82;;
27383;SDS011;14851;51.166;4.760;2023-04-25T06:29:43;16.42;;;4.28;;
27383;SDS011;14851;51.166;4.760;2023-04-25T06:32:09;20.88;;;4.45;;
27383;SDS011;14851;51.166;4.760;2023-04-25T06:34:35;29.58;;;14.48;;
27383;SDS011;14851;51.166;4.760;2023-04-25T06:37:05;19.67;;;4.57;;
27383;SDS011;14851;51.166;4.760;2023-04-25T06:39:33;16.48;;;4.22;;
27383;SDS011;14851;51.166;4.760;2023-04-25T06:41:59;16.95;;;4.90;;
27383;SDS011;14851;51.166;4.760;2023-04-25T06:44:48;18.83;;;4.50;;
27383;SDS011;14851;51.166;4.760;2023-04-25T06:47:14;15.32;;;4.47;;
27383;SDS011;14851;51.166;4.760;2023-04-25T06:49:41;16.08;;;4.72;;
27383;SDS011;14851;51.166;4.760;2023-04-25T06:52:08;14.93;;;4.47;;
27383;SDS011;14851;51.166;4.760;2023-04-25T06:54:36;17.70;;;4.40;;
27383;SDS011;14851;51.166;4.760;2023-04-25T06:57:14;17.52;;;4.40;;
27383;SDS011;14851;51.166;4.760;2023-04-25T06:59:40;12.18;;;3.40;;
27383;SDS011;14851;51.166;4.760;2023-04-25T07:02:07;16.55;;;3.65;;
27383;SDS011;14851;51.166;4.760;2023-04-25T07:04:38;11.15;;;3.63;;
27383;SDS011;14851;51.166;4.760;2023-04-25T07:07:11;10.93;;;3.38;;
27383;SDS011;14851;51.166;4.760;2023-04-25T07:09:48;14.95;;;4.38;;
27383;SDS011;14851;51.166;4.760;2023-04-25T07:14:43;16.10;;;5.03;;
27383;SDS011;14851;51.166;4.760;2023-04-25T07:17:11;14.25;;;4.68;;
27383;SDS011;14851;51.166;4.760;2023-04-25T07:19:38;11.13;;;4.35;;
27383;SDS011;14851;51.166;4.760;2023-04-25T07:22:07;13.60;;;5.10;;
27383;SDS011;14851;51.166;4.760;2023-04-25T07:24:34;12.60;;;4.72;;
27383;SDS011;14851;51.166;4.760;2023-04-25T07:27:00;16.77;;;4.20;;
27383;SDS011;14851;51.166;4.760;2023-04-25T07:29:34;12.93;;;3.70;;
27383;SDS011;14851;51.166;4.760;2023-04-25T07:32:03;10.20;;;3.30;;
27383;SDS011;14851;51.166;4.760;2023-04-25T07:34:32;12.83;;;3.67;;
27383;SDS011;14851;51.166;4.760;2023-04-25T07:37:02;15.48;;;3.28;;
27383;SDS011;14851;51.166;4.760;2023-04-25T07:39:35;8.75;;;2.70;;
27383;SDS011;14851;51.166;4.760;2023-04-25T07:42:02;11.80;;;2.67;;
27383;SDS011;14851;51.166;4.760;2023-04-25T07:44:29;10.65;;;2.60;;
27383;SDS011;14851;51.166;4.760;2023-04-25T07:47:04;11.18;;;2.90;;
27383;SDS011;14851;51.166;4.760;2023-04-25T07:49:34;9.48;;;2.75;;
27383;SDS011;14851;51.166;4.760;2023-04-25T07:52:04;10.80;;;3.28;;
27383;SDS011;14851;51.166;4.760;2023-04-25T07:54:32;8.65;;;3.15;;
27383;SDS011;14851;51.166;4.760;2023-04-25T07:57:04;9.65;;;2.55;;
27383;SDS011;14851;51.166;4.760;2023-04-25T07:59:35;9.73;;;2.33;;
27383;SDS011;14851;51.166;4.760;2023-04-25T08:02:04;11.88;;;2.58;;
27383;SDS011;14851;51.166;4.760;2023-04-25T08:04:31;9.82;;;2.10;;
27383;SDS011;14851;51.166;4.760;2023-04-25T08:09:37;10.27;;;2.75;;
27383;SDS011;14851;51.166;4.760;2023-04-25T08:12:06;7.72;;;2.15;;
27383;SDS011;14851;51.166;4.760;2023-04-25T08:14:33;9.88;;;2.35;;
27383;SDS011;14851;51.166;4.760;2023-04-25T08:17:03;8.13;;;2.53;;
27383;SDS011;14851;51.166;4.760;2023-04-25T08:19:32;10.27;;;2.40;;
27383;SDS011;14851;51.166;4.760;2023-04-25T08:21:58;6.95;;;2.08;;
27383;SDS011;14851;51.166;4.760;2023-04-25T08:24:31;9.18;;;2.05;;
27383;SDS011;14851;51.166;4.760;2023-04-25T08:26:57;9.40;;;2.08;;
27383;SDS011;14851;51.166;4.760;2023-04-25T08:29:26;10.82;;;2.10;;
27383;SDS011;14851;51.166;4.760;2023-04-25T08:31:54;10.63;;;2.00;;
27383;SDS011;14851;51.166;4.760;2023-04-25T08:34:20;7.75;;;1.90;;
27383;SDS011;14851;51.166;4.760;2023-04-25T08:36:47;8.30;;;2.22;;
27383;SDS011;14851;51.166;4.760;2023-04-25T08:39:24;9.82;;;2.17;;
27383;SDS011;14851;51.166;4.760;2023-04-25T08:42:25;11.95;;;2.50;;
27383;SDS011;14851;51.166;4.760;2023-04-25T08:44:57;11.45;;;2.45;;
27383;SDS011;14851;51.166;4.760;2023-04-25T08:47:29;7.10;;;2.30;;
27383;SDS011;14851;51.166;4.760;2023-04-25T08:49:58;8.57;;;2.50;;
27383;SDS011;14851;51.166;4.760;2023-04-25T08:52:39;9.93;;;2.63;;
27383;SDS011;14851;51.166;4.760;2023-04-25T08:55:14;7.45;;;2.08;;
27383;SDS011;14851;51.166;4.760;2023-04-25T08:57:43;6.82;;;2.55;;
27383;SDS011;14851;51.166;4.760;2023-04-25T09:00:11;9.43;;;2.45;;
27383;SDS011;14851;51.166;4.760;2023-04-25T09:05:07;6.20;;;1.95;;
27383;SDS011;14851;51.166;4.760;2023-04-25T09:07:36;5.20;;;1.55;;
27383;SDS011;14851;51.166;4.760;2023-04-25T09:10:02;6.72;;;1.80;;
27383;SDS011;14851;51.166;4.760;2023-04-25T09:12:34;4.88;;;1.45;;
27383;SDS011;14851;51.166;4.760;2023-04-25T09:15:11;9.55;;;1.60;;
27383;SDS011;14851;51.166;4.760;2023-04-25T09:17:57;4.97;;;1.75;;
27383;SDS011;14851;51.166;4.760;2023-04-25T09:20:30;4.32;;;1.30;;
27383;SDS011;14851;51.166;4.760;2023-04-25T09:23:06;6.60;;;1.63;;
27383;SDS011;14851;51.166;4.760;2023-04-25T09:25:35;4.78;;;1.10;;
27383;SDS011;14851;51.166;4.760;2023-04-25T09:28:06;4.55;;;1.48;;
27383;SDS011;14851;51.166;4.760;2023-04-25T09:30:33;5.40;;;1.55;;
27383;SDS011;14851;51.166;4.760;2023-04-25T09:33:06;3.60;;;1.35;;
27383;SDS011;14851;51.166;4.760;2023-04-25T09:35:36;4.07;;;1.30;;
27383;SDS011;14851;51.166;4.760;2023-04-25T09:38:12;5.10;;;1.33;;
27383;SDS011;14851;51.166;4.760;2023-04-25T09:41:09;6.13;;;1.48;;
27383;SDS011;14851;51.166;4.760;2023-04-25T09:43:45;7.43;;;1.50;;
27383;SDS011;14851;51.166;4.760;2023-04-25T09:46:12;6.65;;;1.80;;
27383;SDS011;14851;51.166;4.760;2023-04-25T09:48:50;4.50;;;1.23;;
27383;SDS011;14851;51.166;4.760;2023-04-25T09:51:22;6.88;;;1.73;;
27383;SDS011;14851;51.166;4.760;2023-04-25T09:53:52;5.90;;;1.48;;
27383;SDS011;14851;51.166;4.760;2023-04-25T09:56:46;8.95;;;1.92;;
27383;SDS011;14851;51.166;4.760;2023-04-25T09:59:16;4.75;;;1.90;;
27383;SDS011;14851;51.166;4.760;2023-04-25T10:01:50;7.18;;;1.70;;
27383;SDS011;14851;51.166;4.760;2023-04-25T10:04:27;5.35;;;1.67;;
27383;SDS011;14851;51.166;4.760;2023-04-25T10:07:03;7.55;;;1.80;;
27383;SDS011;14851;51.166;4.760;2023-04-25T10:09:32;8.13;;;2.20;;
27383;SDS011;14851;51.166;4.760;2023-04-25T10:12:01;4.80;;;1.90;;
27383;SDS011;14851;51.166;4.760;2023-04-25T10:14:29;8.15;;;1.70;;
27383;SDS011;14851;51.166;4.760;2023-04-25T10:16:57;7.03;;;1.45;;
27383;SDS011;14851;51.166;4.760;2023-04-25T10:19:23;3.85;;;1.40;;
27383;SDS011;14851;51.166;4.760;2023-04-25T10:21:55;5.25;;;1.55;;
27383;SDS011;14851;51.166;4.760;2023-04-25T10:24:26;7.13;;;1.45;;
27383;SDS011;14851;51.166;4.760;2023-04-25T10:26:52;5.93;;;1.48;;
27383;SDS011;14851;51.166;4.760;2023-04-25T10:29:22;9.23;;;2.15;;
27383;SDS011;14851;51.166;4.760;2023-04-25T10:31:52;7.35;;;1.35;;
27383;SDS011;14851;51.166;4.760;2023-04-25T10:34:24;9.50;;;1.60;;
27383;SDS011;14851;51.166;4.760;2023-04-25T10:37:03;7.15;;;1.77;;
27383;SDS011;14851;51.166;4.760;2023-04-25T10:39:29;8.27;;;2.15;;
27383;SDS011;14851;51.166;4.760;2023-04-25T10:41:56;5.75;;;1.40;;
27383;SDS011;14851;51.166;4.760;2023-04-25T10:44:30;5.47;;;1.88;;
27383;SDS011;14851;51.166;4.760;2023-04-25T10:46:59;5.72;;;1.20;;
27383;SDS011;14851;51.166;4.760;2023-04-25T10:54:55;5.82;;;1.83;;
27383;SDS011;14851;51.166;4.760;2023-04-25T11:00:13;6.15;;;1.70;;
27383;SDS011;14851;51.166;4.760;2023-04-25T11:02:45;8.98;;;1.45;;
27383;SDS011;14851;51.166;4.760;2023-04-25T11:05:34;5.15;;;1.40;;
27383;SDS011;14851;51.166;4.760;2023-04-25T11:08:01;7.75;;;1.40;;
27383;SDS011;14851;51.166;4.760;2023-04-25T11:10:29;4.15;;;1.25;;
27383;SDS011;14851;51.166;4.760;2023-04-25T11:12:57;8.00;;;1.65;;
27383;SDS011;14851;51.166;4.760;2023-04-25T11:15:25;7.95;;;1.38;;
27383;SDS011;14851;51.166;4.760;2023-04-25T11:17:52;6.10;;;1.33;;
27383;SDS011;14851;51.166;4.760;2023-04-25T11:20:18;7.38;;;1.50;;
27383;SDS011;14851;51.166;4.760;2023-04-25T11:22:45;6.18;;;1.33;;
27383;SDS011;14851;51.166;4.760;2023-04-25T11:25:12;5.32;;;1.13;;
27383;SDS011;14851;51.166;4.760;2023-04-25T11:30:19;5.32;;;1.55;;
27383;SDS011;14851;51.166;4.760;2023-04-25T11:32:46;5.43;;;1.20;;
27383;SDS011;14851;51.166;4.760;2023-04-25T11:35:12;6.97;;;1.50;;
27383;SDS011;14851;51.166;4.760;2023-04-25T11:37:39;7.25;;;1.33;;
27383;SDS011;14851;51.166;4.760;2023-04-25T11:40:06;7.45;;;1.77;;
27383;SDS011;14851;51.166;4.760;2023-04-25T11:42:36;6.65;;;1.25;;
27383;SDS011;14851;51.166;4.760;2023-04-25T11:45:10;7.38;;;1.40;;
27383;SDS011;14851;51.166;4.760;2023-04-25T11:47:37;5.03;;;1.23;;
27383;SDS011;14851;51.166;4.760;2023-04-25T11:50:04;6.95;;;1.73;;
27383;SDS011;14851;51.166;4.760;2023-04-25T11:52:39;5.13;;;1.27;;
27383;SDS011;14851;51.166;4.760;2023-04-25T11:57:43;6.93;;;1.42;;
27383;SDS011;14851;51.166;4.760;2023-04-25T12:00:15;7.63;;;1.43;;
27383;SDS011;14851;51.166;4.760;2023-04-25T12:02:44;7.28;;;1.30;;
27383;SDS011;14851;51.166;4.760;2023-04-25T12:05:16;6.97;;;1.48;;
27383;SDS011;14851;51.166;4.760;2023-04-25T12:07:42;4.22;;;0.95;;
27383;SDS011;14851;51.166;4.760;2023-04-25T12:10:09;5.78;;;1.10;;
27383;SDS011;14851;51.166;4.760;2023-04-25T12:12:37;3.05;;;1.00;;
27383;SDS011;14851;51.166;4.760;2023-04-25T12:17:47;2.97;;;0.90;;
27383;SDS011;14851;51.166;4.760;2023-04-25T12:20:17;4.78;;;1.08;;
27383;SDS011;14851;51.166;4.760;2023-04-25T12:22:48;4.43;;;1.00;;
27383;SDS011;14851;51.166;4.760;2023-04-25T12:33:19;2.85;;;0.80;;
27383;SDS011;14851;51.166;4.760;2023-04-25T12:35:44;5.55;;;0.70;;
27383;SDS011;14851;51.166;4.760;2023-04-25T12:38:22;3.75;;;0.80;;
27383;SDS011;14851;51.166;4.760;2023-04-25T12:40:52;3.97;;;1.08;;
27383;SDS011;14851;51.166;4.760;2023-04-25T12:43:19;3.75;;;0.80;;
27383;SDS011;14851;51.166;4.760;2023-04-25T12:45:50;2.83;;;0.90;;
27383;SDS011;14851;51.166;4.760;2023-04-25T12:50:47;4.07;;;1.63;;
27383;SDS011;14851;51.166;4.760;2023-04-25T12:53:20;5.93;;;1.92;;
27383;SDS011;14851;51.166;4.760;2023-04-25T12:55:47;3.50;;;1.30;;
27383;SDS011;14851;51.166;4.760;2023-04-25T12:58:13;3.03;;;1.10;;
27383;SDS011;14851;51.166;4.760;2023-04-25T13:00:40;2.90;;;0.98;;
27383;SDS011;14851;51.166;4.760;2023-04-25T13:03:07;3.60;;;1.05;;
27383;SDS011;14851;51.166;4.760;2023-04-25T13:05:34;5.00;;;1.60;;
27383;SDS011;14851;51.166;4.760;2023-04-25T13:08:00;4.57;;;1.00;;
27383;SDS011;14851;51.166;4.760;2023-04-25T13:10:26;6.10;;;1.00;;
27383;SDS011;14851;51.166;4.760;2023-04-25T13:12:52;3.92;;;0.93;;
27383;SDS011;14851;51.166;4.760;2023-04-25T13:15:20;2.72;;;0.82;;
27383;SDS011;14851;51.166;4.760;2023-04-25T13:17:47;5.50;;;1.20;;
27383;SDS011;14851;51.166;4.760;2023-04-25T13:20:13;3.03;;;0.95;;
27383;SDS011;14851;51.166;4.760;2023-04-25T13:22:41;2.42;;;1.20;;
27383;SDS011;14851;51.166;4.760;2023-04-25T13:25:08;2.65;;;0.90;;
27383;SDS011;14851;51.166;4.760;2023-04-25T13:27:34;5.35;;;1.23;;
27383;SDS011;14851;51.166;4.760;2023-04-25T13:30:03;5.32;;;1.52;;
27383;SDS011;14851;51.166;4.760;2023-04-25T13:32:34;3.63;;;1.20;;
27383;SDS011;14851;51.166;4.760;2023-04-25T13:35:06;4.90;;;1.30;;
27383;SDS011;14851;51.166;4.760;2023-04-25T13:37:34;5.82;;;1.48;;
27383;SDS011;14851;51.166;4.760;2023-04-25T13:40:04;4.72;;;1.35;;
27383;SDS011;14851;51.166;4.760;2023-04-25T13:42:34;4.20;;;1.30;;
27383;SDS011;14851;51.166;4.760;2023-04-25T13:45:00;5.35;;;1.50;;
27383;SDS011;14851;51.166;4.760;2023-04-25T13:47:26;5.60;;;1.00;;
27383;SDS011;14851;51.166;4.760;2023-04-25T13:49:53;5.88;;;1.15;;
27383;SDS011;14851;51.166;4.760;2023-04-25T13:52:19;4.35;;;1.38;;
27383;SDS011;14851;51.166;4.760;2023-04-25T13:54:45;6.25;;;1.00;;
27383;SDS011;14851;51.166;4.760;2023-04-25T13:57:12;8.52;;;1.48;;
27383;SDS011;14851;51.166;4.760;2023-04-25T13:59:38;5.68;;;1.65;;
27383;SDS011;14851;51.166;4.760;2023-04-25T14:02:06;7.28;;;1.27;;
27383;SDS011;14851;51.166;4.760;2023-04-25T14:04:34;5.47;;;1.30;;
27383;SDS011;14851;51.166;4.760;2023-04-25T14:07:00;7.57;;;1.40;;
27383;SDS011;14851;51.166;4.760;2023-04-25T14:09:27;5.22;;;1.25;;
27383;SDS011;14851;51.166;4.760;2023-04-25T14:11:53;5.85;;;1.33;;
27383;SDS011;14851;51.166;4.760;2023-04-25T14:14:20;6.82;;;1.20;;
27383;SDS011;14851;51.166;4.760;2023-04-25T14:16:47;5.70;;;1.60;;
27383;SDS011;14851;51.166;4.760;2023-04-25T14:19:20;4.15;;;1.05;;
27383;SDS011;14851;51.166;4.760;2023-04-25T14:21:46;5.40;;;1.00;;
27383;SDS011;14851;51.166;4.760;2023-04-25T14:24:13;4.75;;;0.88;;
27383;SDS011;14851;51.166;4.760;2023-04-25T14:26:39;5.15;;;1.48;;
27383;SDS011;14851;51.166;4.760;2023-04-25T14:29:06;6.72;;;1.60;;
27383;SDS011;14851;51.166;4.760;2023-04-25T14:31:35;5.35;;;1.38;;
27383;SDS011;14851;51.166;4.760;2023-04-25T14:34:03;5.15;;;1.40;;
27383;SDS011;14851;51.166;4.760;2023-04-25T14:36:35;7.53;;;1.33;;
27383;SDS011;14851;51.166;4.760;2023-04-25T14:39:01;2.97;;;0.75;;
27383;SDS011;14851;51.166;4.760;2023-04-25T14:41:28;4.03;;;0.90;;
27383;SDS011;14851;51.166;4.760;2023-04-25T14:43:56;7.22;;;1.38;;
27383;SDS011;14851;51.166;4.760;2023-04-25T14:46:22;10.07;;;1.45;;
27383;SDS011;14851;51.166;4.760;2023-04-25T14:48:48;3.13;;;0.80;;
27383;SDS011;14851;51.166;4.760;2023-04-25T14:51:17;5.82;;;1.25;;
27383;SDS011;14851;51.166;4.760;2023-04-25T14:53:43;6.85;;;1.13;;
27383;SDS011;14851;51.166;4.760;2023-04-25T14:56:09;5.55;;;1.20;;
27383;SDS011;14851;51.166;4.760;2023-04-25T14:58:35;4.72;;;0.90;;
27383;SDS011;14851;51.166;4.760;2023-04-25T15:01:02;4.88;;;1.13;;
27383;SDS011;14851;51.166;4.760;2023-04-25T15:03:30;3.92;;;1.10;;
27383;SDS011;14851;51.166;4.760;2023-04-25T15:05:57;4.00;;;0.93;;
27383;SDS011;14851;51.166;4.760;2023-04-25T15:08:25;3.85;;;1.00;;
27383;SDS011;14851;51.166;4.760;2023-04-25T15:10:53;3.80;;;1.10;;
27383;SDS011;14851;51.166;4.760;2023-04-25T15:13:22;4.20;;;0.95;;
27383;SDS011;14851;51.166;4.760;2023-04-25T15:15:48;7.40;;;1.42;;
27383;SDS011;14851;51.166;4.760;2023-04-25T15:18:17;5.60;;;1.30;;
27383;SDS011;14851;51.166;4.760;2023-04-25T15:20:48;7.45;;;1.10;;
27383;SDS011;14851;51.166;4.760;2023-04-25T15:23:14;5.22;;;0.90;;
27383;SDS011;14851;51.166;4.760;2023-04-25T15:25:40;4.22;;;1.35;;
27383;SDS011;14851;51.166;4.760;2023-04-25T15:28:08;7.15;;;1.30;;
27383;SDS011;14851;51.166;4.760;2023-04-25T15:30:34;6.63;;;1.20;;
27383;SDS011;14851;51.166;4.760;2023-04-25T15:33:02;8.00;;;2.80;;
27383;SDS011;14851;51.166;4.760;2023-04-25T15:35:28;7.03;;;1.35;;